Time;durP1;ratioP1;P1;durP2;ratioP2;P2;SDS_P1;SDS_P2;PMS_P1;PMS_P2;Temp;Humidity;BMP_temperature;BMP_pressure;BME280_temperature;BME280_humidity;BME280_pressure;Samples;Min_cycle;Max_cycle;Signal;HPM_P1;HPM_P2
2022/11/08 00:01:52;;;;;;;1.88;1.23;;;16.30;70.50;;;;;;5014107;28;20391;-73
2022/11/08 00:04:19;;;;;;;3.78;1.33;;;16.30;70.50;;;;;;5046437;28;20084;-73
2022/11/08 00:15:00;;;;;;;;;;;16.30;70.50;;;;;;5033359;28;20441;-73
2022/11/08 00:17:28;;;;;;;2.50;1.38;;;16.20;70.40;;;;;;5034082;28;20376;-73
2022/11/08 00:19:55;;;;;;;3.53;1.50;;;16.20;70.60;;;;;;5032509;28;20061;-74
2022/11/08 00:22:22;;;;;;;2.28;1.20;;;16.20;70.60;;;;;;5033042;28;20517;-74
2022/11/08 00:24:49;;;;;;;2.65;1.30;;;16.20;70.50;;;;;;5032394;28;20501;-73
2022/11/08 00:27:18;;;;;;;3.70;1.20;;;16.20;70.50;;;;;;5033798;28;20061;-73
2022/11/08 00:29:44;;;;;;;2.03;1.15;;;16.20;70.50;;;;;;5032638;28;20144;-74
2022/11/08 00:32:12;;;;;;;2.22;1.42;;;16.20;70.50;;;;;;5032279;28;20053;-74
2022/11/08 00:34:39;;;;;;;2.35;1.20;;;16.20;70.60;;;;;;5032540;28;20053;-74
2022/11/08 00:37:05;;;;;;;4.28;1.80;;;16.20;70.50;;;;;;5032763;28;20049;-73
2022/11/08 00:39:32;;;;;;;2.25;1.10;;;16.20;70.60;;;;;;5032129;28;20505;-73
2022/11/08 00:41:59;;;;;;;3.35;1.30;;;16.20;70.60;;;;;;5030802;28;20058;-74
2022/11/08 00:44:27;;;;;;;2.40;1.60;;;16.20;70.60;;;;;;5033505;28;20045;-73
2022/11/08 00:46:53;;;;;;;2.88;1.30;;;16.20;70.60;;;;;;5032199;28;20058;-73
2022/11/08 00:49:20;;;;;;;2.13;1.13;;;16.20;70.60;;;;;;5032380;28;20054;-73
2022/11/08 00:51:47;;;;;;;2.08;1.30;;;16.20;70.60;;;;;;5031495;28;20071;-73
2022/11/08 00:54:15;;;;;;;2.67;1.40;;;16.20;70.60;;;;;;5032034;28;20059;-73
2022/11/08 00:56:42;;;;;;;1.83;1.20;;;16.20;70.60;;;;;;5032271;28;20045;-73
2022/11/08 00:59:10;;;;;;;5.40;1.63;;;16.20;70.60;;;;;;5033310;28;20053;-73
2022/11/08 01:01:38;;;;;;;2.90;1.30;;;16.20;70.60;;;;;;5031608;28;20061;-73
2022/11/08 01:04:05;;;;;;;2.13;1.30;;;16.20;70.60;;;;;;5031993;28;20136;-73
2022/11/08 01:06:32;;;;;;;2.45;1.38;;;16.20;70.60;;;;;;5031635;28;20049;-73
2022/11/08 01:08:59;;;;;;;2.22;1.20;;;16.20;70.60;;;;;;5031534;28;20041;-73
2022/11/08 01:11:26;;;;;;;4.75;1.40;;;16.20;70.60;;;;;;5031358;28;20057;-73
2022/11/08 01:13:52;;;;;;;4.78;1.30;;;16.20;70.60;;;;;;5031877;28;20059;-74
2022/11/08 01:16:20;;;;;;;3.60;1.50;;;16.10;70.60;;;;;;5032982;28;20063;-73
2022/11/08 01:18:48;;;;;;;2.83;1.38;;;16.20;70.70;;;;;;5031629;28;20059;-74
2022/11/08 01:21:15;;;;;;;2.13;1.20;;;16.20;70.60;;;;;;5031031;28;20068;-73
2022/11/08 01:23:42;;;;;;;1.88;1.20;;;16.20;70.60;;;;;;5031437;28;20049;-73
2022/11/08 01:26:11;;;;;;;3.92;2.08;;;16.10;70.60;;;;;;5031559;28;20132;-73
2022/11/08 01:28:37;;;;;;;2.20;1.33;;;16.20;70.60;;;;;;5031373;28;20136;-73
2022/11/08 01:31:04;;;;;;;1.90;1.40;;;16.20;70.70;;;;;;5030994;28;20060;-73
2022/11/08 01:33:31;;;;;;;3.85;1.50;;;16.10;70.60;;;;;;5031688;28;20059;-73
2022/11/08 01:35:59;;;;;;;2.63;1.30;;;16.20;70.70;;;;;;5031455;28;20128;-74
2022/11/08 01:38:27;;;;;;;1.48;1.00;;;16.20;70.70;;;;;;5031475;28;20053;-73
2022/11/08 01:40:53;;;;;;;2.10;1.23;;;16.20;70.70;;;;;;5030768;28;20136;-74
2022/11/08 01:43:40;;;;;;;2.50;1.20;;;16.20;70.70;;;;;;5031207;28;20049;-73
2022/11/08 01:46:39;;;;;;;3.20;1.30;;;16.20;70.60;;;;;;5031402;28;20152;-73
2022/11/08 01:49:17;;;;;;;3.20;1.23;;;16.20;70.60;;;;;;5031180;28;20053;-73
2022/11/08 01:51:47;;;;;;;2.83;1.25;;;16.10;70.60;;;;;;5030291;28;20053;-73
2022/11/08 01:54:16;;;;;;;3.65;1.83;;;16.10;70.60;;;;;;5031052;28;20757;-73
2022/11/08 01:56:42;;;;;;;2.05;1.20;;;16.10;70.60;;;;;;5031256;28;20136;-73
2022/11/08 01:59:10;;;;;;;1.38;1.00;;;16.10;70.60;;;;;;5032203;28;20485;-73
2022/11/08 02:01:36;;;;;;;3.00;1.60;;;16.10;70.60;;;;;;5031698;28;20437;-74
2022/11/08 02:04:03;;;;;;;2.20;1.30;;;16.10;70.60;;;;;;5030593;28;20059;-73
2022/11/08 02:06:30;;;;;;;2.03;1.20;;;16.10;70.60;;;;;;5030815;28;20045;-73
2022/11/08 02:08:58;;;;;;;2.33;1.30;;;16.10;70.60;;;;;;5031049;28;20061;-73
2022/11/08 02:11:25;;;;;;;3.05;1.20;;;16.10;70.60;;;;;;5030204;28;20146;-73
2022/11/08 02:13:51;;;;;;;1.58;1.10;;;16.10;70.60;;;;;;5030895;28;20137;-73
2022/11/08 02:16:18;;;;;;;2.25;1.33;;;16.10;70.60;;;;;;5030748;28;20520;-73
2022/11/08 02:18:45;;;;;;;1.92;1.20;;;16.10;70.60;;;;;;5030644;28;20064;-73
2022/11/08 02:21:14;;;;;;;3.55;1.33;;;16.10;70.60;;;;;;5031323;28;20132;-73
2022/11/08 02:23:47;;;;;;;3.10;1.40;;;16.10;70.60;;;;;;5030792;28;20057;-73
2022/11/08 02:26:15;;;;;;;2.05;1.30;;;16.10;70.60;;;;;;5030781;28;20392;-73
2022/11/08 02:28:42;;;;;;;1.88;1.02;;;16.10;70.70;;;;;;5030648;28;20410;-73
2022/11/08 02:31:09;;;;;;;3.83;1.30;;;16.10;70.60;;;;;;5030098;28;20049;-73
2022/11/08 02:33:36;;;;;;;3.17;1.30;;;16.10;70.60;;;;;;5030542;28;20053;-73
2022/11/08 02:36:02;;;;;;;2.15;1.20;;;16.10;70.60;;;;;;5030530;28;20045;-73
2022/11/08 02:38:29;;;;;;;3.33;1.33;;;16.10;70.60;;;;;;5030324;28;20050;-73
2022/11/08 02:40:57;;;;;;;1.80;1.20;;;16.10;70.60;;;;;;5030169;28;20132;-73
2022/11/08 02:43:24;;;;;;;2.33;1.35;;;16.10;70.60;;;;;;5030782;28;20053;-73
2022/11/08 02:45:51;;;;;;;3.05;1.25;;;16.10;70.70;;;;;;5030645;28;20060;-73
2022/11/08 02:48:19;;;;;;;2.65;1.30;;;16.10;70.70;;;;;;5026963;28;20161;-73
2022/11/08 02:50:45;;;;;;;3.72;1.40;;;16.10;70.70;;;;;;5010068;28;20056;-73
2022/11/08 02:53:12;;;;;;;2.17;1.27;;;16.20;72.00;;;;;;5010601;28;20064;-73
2022/11/08 02:55:39;;;;;;;2.28;1.23;;;16.00;70.60;;;;;;5011002;28;20582;-73
2022/11/08 02:58:07;;;;;;;2.42;1.20;;;16.10;70.60;;;;;;5010898;28;20133;-73
2022/11/08 03:00:34;;;;;;;3.13;1.33;;;16.10;70.60;;;;;;5009977;28;20061;-73
2022/11/08 03:03:01;;;;;;;2.58;1.40;;;16.10;70.70;;;;;;5025453;28;20076;-73
2022/11/08 03:05:28;;;;;;;2.35;1.17;;;16.00;70.60;;;;;;5034595;28;20050;-73
2022/11/08 03:07:55;;;;;;;2.08;1.10;;;16.00;70.60;;;;;;5034502;28;20053;-74
2022/11/08 03:10:21;;;;;;;1.85;1.15;;;16.00;70.60;;;;;;5033422;28;20049;-73
2022/11/08 03:12:54;;;;;;;2.38;1.20;;;16.00;70.70;;;;;;5067313;28;20059;-73
2022/11/08 03:15:22;;;;;;;2.45;1.20;;;16.00;70.70;;;;;;5034088;28;20136;-73
2022/11/08 03:17:49;;;;;;;2.38;1.13;;;16.00;70.60;;;;;;5034200;28;20538;-73
2022/11/08 03:20:17;;;;;;;2.33;1.10;;;16.00;70.70;;;;;;5033181;28;20132;-73
2022/11/08 03:22:43;;;;;;;2.20;1.30;;;16.00;70.70;;;;;;5034066;28;20514;-73
2022/11/08 03:25:10;;;;;;;1.75;1.10;;;14.90;72.30;;;;;;5033661;28;20049;-73
2022/11/08 03:27:40;;;;;;;3.08;1.30;;;16.00;70.70;;;;;;5033598;28;20049;-73
2022/11/08 03:30:07;;;;;;;2.47;1.10;;;16.00;70.70;;;;;;5032886;28;20050;-73
2022/11/08 03:32:35;;;;;;;1.98;1.10;;;16.00;70.70;;;;;;5034785;28;20075;-73
2022/11/08 03:35:02;;;;;;;2.40;1.30;;;16.00;70.70;;;;;;5033642;28;20554;-73
2022/11/08 03:37:32;;;;;;;2.45;1.38;;;16.00;70.80;;;;;;5033418;28;20049;-73
2022/11/08 03:39:58;;;;;;;2.15;1.20;;;16.00;70.80;;;;;;5033085;28;20056;-73
2022/11/08 03:42:25;;;;;;;2.13;1.10;;;15.90;70.70;;;;;;5033451;28;20122;-73
2022/11/08 03:44:52;;;;;;;1.83;1.10;;;16.00;70.80;;;;;;5033148;28;20042;-73
2022/11/08 03:47:18;;;;;;;1.88;1.10;;;15.90;70.70;;;;;;5033297;28;20049;-73
2022/11/08 03:49:46;;;;;;;1.15;1.05;;;15.90;70.80;;;;;;5034503;28;20056;-73
2022/11/08 03:52:13;;;;;;;3.83;1.33;;;15.90;70.80;;;;;;5032938;28;20057;-73
2022/11/08 03:54:40;;;;;;;2.20;1.15;;;15.90;70.80;;;;;;5033367;28;20455;-73
2022/11/08 03:57:06;;;;;;;1.52;1.10;;;15.90;70.80;;;;;;5032907;28;20073;-73
2022/11/08 03:59:33;;;;;;;2.10;1.35;;;15.90;70.80;;;;;;5033198;28;20060;-74
2022/11/08 04:02:00;;;;;;;2.58;1.30;;;15.90;70.80;;;;;;5033947;28;20053;-73
2022/11/08 04:04:26;;;;;;;2.30;1.10;;;15.90;70.80;;;;;;5032919;28;20060;-74
2022/11/08 04:06:54;;;;;;;1.80;1.10;;;15.90;70.80;;;;;;5033204;28;20491;-74
2022/11/08 04:09:21;;;;;;;2.00;1.15;;;15.90;70.80;;;;;;5033281;28;20141;-74
2022/11/08 04:17:16;;;;;;;1.95;1.20;;;15.90;70.90;;;;;;5032950;28;20421;-73
2022/11/08 04:22:28;;;;;;;2.08;1.10;;;15.90;70.90;;;;;;5032629;28;20495;-73
2022/11/08 04:24:55;;;;;;;2.15;1.30;;;15.90;70.90;;;;;;5032403;28;20049;-73
2022/11/08 04:27:22;;;;;;;1.95;1.20;;;15.90;70.90;;;;;;5032758;28;20132;-73
2022/11/08 04:29:48;;;;;;;3.00;1.42;;;15.90;71.40;;;;;;5032417;28;20053;-73
2022/11/08 04:32:15;;;;;;;1.40;1.10;;;15.80;70.80;;;;;;5031176;28;20053;-74
2022/11/08 04:34:42;;;;;;;2.95;1.25;;;15.90;70.80;;;;;;5031970;28;20057;-73
2022/11/08 04:37:08;;;;;;;2.25;1.40;;;15.80;70.80;;;;;;5032717;28;20071;-73
2022/11/08 04:39:36;;;;;;;2.70;1.35;;;15.80;70.80;;;;;;5032511;28;20053;-73
2022/11/08 04:42:03;;;;;;;2.00;1.13;;;15.80;70.80;;;;;;5032060;28;20079;-73
2022/11/08 04:44:30;;;;;;;2.80;1.35;;;15.80;70.80;;;;;;5032253;28;20049;-73
2022/11/08 04:46:57;;;;;;;1.92;1.30;;;15.80;70.80;;;;;;5032037;28;20053;-73
2022/11/08 04:49:24;;;;;;;1.80;1.20;;;15.80;70.80;;;;;;5032548;28;20057;-73
2022/11/08 04:51:51;;;;;;;2.55;1.23;;;15.80;70.80;;;;;;5033045;28;20470;-73
2022/11/08 04:54:17;;;;;;;2.45;1.30;;;15.80;70.80;;;;;;5032295;28;20141;-73
2022/11/08 04:56:45;;;;;;;2.33;1.20;;;15.80;70.80;;;;;;5032282;28;20052;-73
2022/11/08 04:59:12;;;;;;;1.80;1.20;;;15.80;70.80;;;;;;5032009;28;20064;-73
2022/11/08 05:01:39;;;;;;;1.70;1.17;;;15.80;70.80;;;;;;5031424;28;20067;-73
2022/11/08 05:04:05;;;;;;;2.17;1.30;;;15.80;70.80;;;;;;5031770;28;20141;-73
2022/11/08 05:06:32;;;;;;;2.33;1.20;;;15.80;70.80;;;;;;5031916;28;20050;-73
2022/11/08 05:08:59;;;;;;;1.35;1.00;;;15.80;70.80;;;;;;5032108;28;20148;-73
2022/11/08 05:11:27;;;;;;;2.38;1.20;;;15.80;70.80;;;;;;5031411;28;20057;-73
2022/11/08 05:13:55;;;;;;;2.03;1.20;;;15.80;70.80;;;;;;5031810;28;20057;-73
2022/11/08 05:16:23;;;;;;;3.03;1.20;;;15.80;70.80;;;;;;5031881;28;20087;-73
2022/11/08 05:18:49;;;;;;;1.60;1.27;;;15.80;70.80;;;;;;5031966;28;20061;-74
2022/11/08 05:24:02;;;;;;;1.60;1.10;;;15.80;70.80;;;;;;5032581;28;20478;-73
2022/11/08 05:26:29;;;;;;;3.60;1.20;;;15.80;70.80;;;;;;5031117;28;20483;-73
2022/11/08 05:28:57;;;;;;;1.98;1.05;;;15.80;70.80;;;;;;5031667;28;20153;-74
2022/11/08 05:31:24;;;;;;;2.45;1.40;;;15.80;70.80;;;;;;5031118;28;20053;-73
2022/11/08 05:33:51;;;;;;;2.20;1.25;;;15.80;70.80;;;;;;5031494;28;20061;-74
2022/11/08 05:36:18;;;;;;;1.88;1.45;;;15.80;70.80;;;;;;5032487;28;20122;-73
2022/11/08 05:38:45;;;;;;;3.15;1.20;;;15.80;70.80;;;;;;5031265;28;20049;-74
2022/11/08 05:41:12;;;;;;;1.77;1.10;;;15.80;70.80;;;;;;5030717;28;20140;-73
2022/11/08 05:43:39;;;;;;;3.63;1.20;;;15.80;70.80;;;;;;5031594;28;20053;-73
2022/11/08 05:46:07;;;;;;;2.00;1.20;;;15.80;70.80;;;;;;5031354;28;20136;-71
2022/11/08 05:48:34;;;;;;;1.65;1.08;;;15.80;70.80;;;;;;5031537;28;20060;-73
2022/11/08 05:51:01;;;;;;;1.65;1.10;;;15.80;70.80;;;;;;5030619;28;20079;-73
2022/11/08 05:53:31;;;;;;;3.40;1.20;;;15.80;70.80;;;;;;5031919;28;20056;-73
2022/11/08 05:55:59;;;;;;;1.38;1.00;;;15.70;70.70;;;;;;5031759;28;20045;-73
2022/11/08 05:58:25;;;;;;;2.50;1.20;;;15.70;70.70;;;;;;5032701;28;20056;-73
2022/11/08 06:00:59;;;;;;;1.77;1.20;;;15.70;70.70;;;;;;5036731;28;20061;-73
2022/11/08 06:03:27;;;;;;;1.88;1.30;;;15.80;70.70;;;;;;5028047;28;20060;-73
2022/11/08 06:05:54;;;;;;;2.78;1.50;;;15.70;70.70;;;;;;5030463;28;20072;-73
2022/11/08 06:08:21;;;;;;;1.77;1.15;;;15.70;70.70;;;;;;5030652;28;20055;-73
2022/11/08 06:10:47;;;;;;;2.47;1.50;;;15.70;70.70;;;;;;5029827;28;20049;-74
2022/11/08 06:13:14;;;;;;;2.22;1.30;;;15.70;70.70;;;;;;5030788;28;20053;-73
2022/11/08 06:15:41;;;;;;;1.88;1.27;;;15.70;70.70;;;;;;5030619;28;20083;-73
2022/11/08 06:18:07;;;;;;;3.55;1.30;;;15.70;70.70;;;;;;5030237;28;20048;-73
2022/11/08 06:20:36;;;;;;;1.55;1.02;;;15.70;70.70;;;;;;5030038;28;20053;-73
2022/11/08 06:23:02;;;;;;;2.55;1.00;;;15.70;70.70;;;;;;5030450;28;20068;-73
2022/11/08 06:25:29;;;;;;;2.72;1.30;;;15.70;70.70;;;;;;5027407;28;20068;-73
2022/11/08 06:27:58;;;;;;;1.55;1.15;;;15.70;70.70;;;;;;5010662;28;20054;-73
2022/11/08 06:30:25;;;;;;;2.47;1.30;;;15.70;70.70;;;;;;5029133;28;20053;-73
2022/11/08 06:32:52;;;;;;;3.05;1.35;;;15.70;70.70;;;;;;5030619;28;20059;-72
2022/11/08 06:35:18;;;;;;;1.42;1.20;;;15.70;70.70;;;;;;5030069;28;20503;-72
2022/11/08 06:37:46;;;;;;;1.92;1.13;;;15.70;70.70;;;;;;5030356;28;20076;-72
2022/11/08 06:40:13;;;;;;;2.28;1.30;;;15.70;70.70;;;;;;5032864;28;20071;-72
2022/11/08 06:42:40;;;;;;;3.33;1.50;;;15.70;70.70;;;;;;5034596;28;20060;-72
2022/11/08 06:45:07;;;;;;;2.63;1.20;;;15.70;70.60;;;;;;5034396;28;20067;-73
2022/11/08 06:47:34;;;;;;;1.95;1.30;;;15.70;70.60;;;;;;5034291;28;20510;-73
2022/11/08 06:50:01;;;;;;;2.42;1.20;;;15.70;70.60;;;;;;5033435;28;20053;-73
2022/11/08 06:52:27;;;;;;;2.30;1.40;;;15.70;70.60;;;;;;5034406;28;20053;-73
2022/11/08 06:54:55;;;;;;;2.03;1.23;;;15.60;70.60;;;;;;5034109;28;20501;-73
2022/11/08 06:57:22;;;;;;;2.63;1.30;;;15.70;70.60;;;;;;5034363;28;20136;-73
2022/11/08 06:59:49;;;;;;;3.05;1.58;;;15.70;70.60;;;;;;5034233;28;20634;-73
2022/11/08 07:02:15;;;;;;;3.10;1.35;;;15.60;70.60;;;;;;5033200;28;20057;-73
2022/11/08 07:04:42;;;;;;;2.60;1.30;;;15.70;70.60;;;;;;5033793;28;20057;-72
2022/11/08 07:07:09;;;;;;;2.05;1.10;;;15.70;70.60;;;;;;5033768;28;20487;-72
2022/11/08 07:09:36;;;;;;;3.15;1.40;;;15.70;70.60;;;;;;5034092;28;20479;-73
2022/11/08 07:12:04;;;;;;;2.08;1.23;;;15.60;70.50;;;;;;5033518;28;20131;-72
2022/11/08 07:14:31;;;;;;;2.22;1.33;;;15.60;70.50;;;;;;5033551;28;20616;-73
2022/11/08 07:16:58;;;;;;;4.13;1.30;;;15.70;70.60;;;;;;5034022;28;20060;-73
2022/11/08 07:19:24;;;;;;;1.77;1.20;;;15.60;70.60;;;;;;5033796;28;20053;-73
2022/11/08 07:21:51;;;;;;;2.42;1.33;;;15.60;70.50;;;;;;5034542;28;20057;-73
2022/11/08 07:24:18;;;;;;;2.53;1.20;;;15.60;70.50;;;;;;5034567;28;20059;-73
2022/11/08 07:26:44;;;;;;;2.30;1.30;;;15.60;70.50;;;;;;5033763;28;20064;-74
2022/11/08 07:29:12;;;;;;;2.20;1.38;;;15.60;70.50;;;;;;5033262;28;20061;-73
2022/11/08 07:31:39;;;;;;;1.73;1.30;;;15.70;70.60;;;;;;5066317;28;20540;-73
2022/11/08 07:34:06;;;;;;;2.72;1.30;;;15.60;70.60;;;;;;5066696;28;20053;-73
2022/11/08 07:36:32;;;;;;;2.15;1.20;;;15.60;70.60;;;;;;5065529;28;20055;-73
2022/11/08 07:38:59;;;;;;;2.50;1.20;;;15.70;70.60;;;;;;5030761;28;20053;-73
2022/11/08 07:41:26;;;;;;;1.33;1.20;;;15.70;70.60;;;;;;5033747;28;20072;-74
2022/11/08 07:43:52;;;;;;;1.88;1.10;;;15.70;70.60;;;;;;5032971;28;20186;-74
2022/11/08 07:46:20;;;;;;;2.13;1.20;;;15.80;70.60;;;;;;5030028;28;20060;-74
2022/11/08 07:48:47;;;;;;;2.15;1.30;;;15.80;70.50;;;;;;5013255;28;20057;-74
2022/11/08 07:51:14;;;;;;;2.13;1.42;;;15.80;70.40;;;;;;5012607;28;20637;-74
2022/11/08 07:53:42;;;;;;;2.30;1.40;;;15.90;70.40;;;;;;5018555;28;20049;-73
2022/11/08 07:56:09;;;;;;;1.80;1.50;;;15.90;70.30;;;;;;5033073;28;20136;-73
2022/11/08 07:58:35;;;;;;;2.03;1.10;;;15.90;70.30;;;;;;5033137;28;20501;-73
2022/11/08 08:01:03;;;;;;;2.60;1.10;;;15.90;70.30;;;;;;5032776;28;20053;-73
2022/11/08 08:03:31;;;;;;;2.28;1.20;;;16.00;70.20;;;;;;5032851;28;20068;-73
2022/11/08 08:05:57;;;;;;;1.65;1.10;;;16.10;70.30;;;;;;5065363;28;20107;-73
2022/11/08 08:08:24;;;;;;;2.03;1.20;;;16.10;70.20;;;;;;5033119;28;20059;-73
2022/11/08 08:10:51;;;;;;;1.90;1.17;;;16.20;70.20;;;;;;5032076;28;20507;-73
2022/11/08 08:13:18;;;;;;;3.13;1.13;;;16.20;70.10;;;;;;5032971;28;20136;-74
2022/11/08 08:15:44;;;;;;;2.85;1.40;;;16.20;70.10;;;;;;5065192;28;20057;-74
2022/11/08 08:18:11;;;;;;;2.25;1.10;;;16.20;70.00;;;;;;5032815;28;20057;-74
2022/11/08 08:20:39;;;;;;;2.58;1.20;;;16.30;70.00;;;;;;5033190;28;20057;-74
2022/11/08 08:23:06;;;;;;;3.70;1.10;;;16.30;69.90;;;;;;5042556;28;20137;-73
2022/11/08 08:25:33;;;;;;;1.52;1.00;;;16.30;69.90;;;;;;5033626;28;20440;-73
2022/11/08 08:28:00;;;;;;;1.45;1.15;;;16.40;69.90;;;;;;5032294;28;20137;-73
2022/11/08 08:30:27;;;;;;;2.00;1.15;;;16.40;70.30;;;;;;5031700;28;20052;-73
2022/11/08 08:33:01;;;;;;;1.45;1.00;;;16.40;69.80;;;;;;5032072;28;20067;-72
2022/11/08 08:35:28;;;;;;;2.58;1.15;;;16.50;69.70;;;;;;5038771;28;20052;-73
2022/11/08 08:37:59;;;;;;;2.17;1.10;;;16.50;69.70;;;;;;5052546;28;20132;-74
2022/11/08 08:40:26;;;;;;;1.48;1.02;;;16.50;69.60;;;;;;5035180;28;20595;-74
2022/11/08 08:42:52;;;;;;;1.42;1.20;;;16.60;69.60;;;;;;5047167;28;20086;-73
2022/11/08 08:45:19;;;;;;;1.33;0.93;;;16.60;69.50;;;;;;5040335;28;20119;-72
2022/11/08 08:47:51;;;;;;;1.70;1.00;;;16.60;69.50;;;;;;5051928;28;20059;-72
2022/11/08 08:50:17;;;;;;;2.72;1.27;;;16.60;69.40;;;;;;5052628;28;20053;-73
2022/11/08 08:52:44;;;;;;;2.40;1.10;;;16.60;69.40;;;;;;5052134;28;20063;-72
2022/11/08 08:55:12;;;;;;;1.33;1.00;;;16.60;69.30;;;;;;5033640;28;20075;-72
2022/11/08 08:57:39;;;;;;;2.00;1.35;;;16.70;69.30;;;;;;5031928;28;20045;-72
2022/11/08 09:00:06;;;;;;;2.20;1.10;;;16.70;69.30;;;;;;5032829;28;20148;-72
2022/11/08 09:02:33;;;;;;;1.83;1.30;;;16.70;69.30;;;;;;5029046;28;20056;-73
2022/11/08 09:05:00;;;;;;;1.25;1.00;;;16.70;69.70;;;;;;5017993;28;20146;-73
2022/11/08 09:07:27;;;;;;;1.95;1.20;;;16.80;69.20;;;;;;5028027;28;20053;-73
2022/11/08 09:09:53;;;;;;;1.50;1.10;;;16.80;69.20;;;;;;5031556;28;20067;-73
2022/11/08 09:12:21;;;;;;;1.95;1.05;;;16.80;69.20;;;;;;5019602;28;20144;-73
2022/11/08 09:14:48;;;;;;;1.63;1.20;;;16.80;69.10;;;;;;5028657;28;20483;-73
2022/11/08 09:17:15;;;;;;;1.52;1.10;;;16.90;69.10;;;;;;5031806;28;20482;-72
2022/11/08 09:19:41;;;;;;;1.52;1.10;;;16.90;69.10;;;;;;5031456;28;20053;-73
2022/11/08 09:22:08;;;;;;;1.35;1.13;;;16.90;69.00;;;;;;5030460;28;20057;-73
2022/11/08 09:24:35;;;;;;;1.83;1.00;;;16.90;69.00;;;;;;5041278;28;20053;-73
2022/11/08 09:27:02;;;;;;;2.40;1.20;;;17.00;69.00;;;;;;5039986;28;20140;-73
2022/11/08 09:29:30;;;;;;;1.17;0.80;;;17.00;69.00;;;;;;5038606;28;20051;-73
2022/11/08 09:31:57;;;;;;;2.15;1.10;;;17.00;68.90;;;;;;5044282;28;20084;-73
2022/11/08 09:34:24;;;;;;;2.03;1.20;;;17.00;68.90;;;;;;5051452;28;20112;-73
2022/11/08 09:36:50;;;;;;;1.35;0.95;;;17.00;68.90;;;;;;5051032;28;20064;-73
2022/11/08 09:39:17;;;;;;;2.50;1.13;;;17.00;68.80;;;;;;5031791;28;20490;-73
2022/11/08 09:41:52;;;;;;;3.55;1.20;;;17.00;68.80;;;;;;5039139;28;20048;-73
2022/11/08 09:44:25;;;;;;;;;;;17.10;68.90;;;;;;5040206;28;20052;-73
2022/11/08 09:46:54;;;;;;;1.83;1.05;;;17.10;69.00;;;;;;5050524;28;20462;-73
2022/11/08 09:49:22;;;;;;;3.17;1.38;;;17.10;69.40;;;;;;5033616;28;20064;-74
2022/11/08 09:51:49;;;;;;;2.95;1.20;;;17.10;68.90;;;;;;5015072;28;20052;-72
2022/11/08 09:54:19;;;;;;;1.60;1.10;;;17.10;69.00;;;;;;5016157;28;20053;-73
2022/11/08 09:56:46;;;;;;;1.48;1.10;;;17.20;69.00;;;;;;5022130;28;20091;-73
2022/11/08 09:59:18;;;;;;;2.30;1.30;;;17.10;68.90;;;;;;5030443;28;20049;-73
2022/11/08 10:01:45;;;;;;;2.45;1.30;;;17.10;68.90;;;;;;5025967;28;20060;-72
2022/11/08 10:04:15;;;;;;;2.28;1.30;;;17.10;68.90;;;;;;5011655;28;20057;-73
2022/11/08 10:06:58;;;;;;;1.90;1.38;;;17.10;68.90;;;;;;5018912;28;20068;-73
2022/11/08 10:09:34;;;;;;;1.27;1.08;;;17.10;68.90;;;;;;5025408;28;20053;-73
2022/11/08 10:12:08;;;;;;;2.42;1.15;;;17.10;69.00;;;;;;5018613;28;20108;-73
2022/11/08 10:14:44;;;;;;;1.52;1.10;;;17.10;69.00;;;;;;5025689;28;20384;-73
2022/11/08 10:17:23;;;;;;;1.77;1.20;;;17.10;68.90;;;;;;5015167;28;20155;-72
2022/11/08 10:19:59;;;;;;;2.53;1.40;;;17.10;69.00;;;;;;5023163;28;20046;-72
2022/11/08 10:22:28;;;;;;;1.65;1.13;;;17.10;69.00;;;;;;5056229;28;20479;-72
2022/11/08 10:24:57;;;;;;;2.72;1.10;;;17.10;69.20;;;;;;5030179;28;20200;-72
2022/11/08 10:27:27;;;;;;;1.60;1.17;;;17.10;69.30;;;;;;5023502;28;20079;-72
2022/11/08 10:29:56;;;;;;;2.03;1.33;;;17.10;69.30;;;;;;5014379;28;20062;-72
2022/11/08 10:32:23;;;;;;;1.60;1.10;;;17.10;69.30;;;;;;5031366;28;20060;-72
2022/11/08 10:34:51;;;;;;;2.83;1.35;;;17.10;69.40;;;;;;5044000;28;20129;-72
2022/11/08 10:37:20;;;;;;;2.15;1.20;;;17.10;69.40;;;;;;5012168;28;20061;-72
2022/11/08 10:39:52;;;;;;;1.85;1.30;;;17.00;69.30;;;;;;5012228;28;20042;-72
2022/11/08 10:42:24;;;;;;;1.80;1.20;;;17.00;69.40;;;;;;5027201;28;20125;-72
2022/11/08 10:44:51;;;;;;;1.20;1.05;;;17.00;69.40;;;;;;5010809;28;20618;-72
2022/11/08 10:47:20;;;;;;;1.60;1.20;;;17.00;69.40;;;;;;5042029;28;20054;-72
2022/11/08 10:49:46;;;;;;;2.60;1.40;;;17.00;69.40;;;;;;5043754;28;20050;-72
2022/11/08 10:52:17;;;;;;;1.58;1.23;;;17.00;69.40;;;;;;5015530;28;20058;-72
2022/11/08 10:54:47;;;;;;;2.08;1.10;;;17.00;69.30;;;;;;5010462;28;20050;-73
2022/11/08 10:57:14;;;;;;;1.92;1.10;;;17.00;69.40;;;;;;5017766;28;20057;-73
2022/11/08 10:59:41;;;;;;;1.20;1.00;;;17.00;69.30;;;;;;5030182;28;20569;-73
2022/11/08 11:02:28;;;;;;;3.05;1.23;;;17.00;69.30;;;;;;5027653;28;20059;-72
2022/11/08 11:05:11;;;;;;;2.58;1.30;;;17.00;69.20;;;;;;5030012;28;20057;-72
2022/11/08 11:07:38;;;;;;;1.73;1.10;;;17.00;69.30;;;;;;5061303;28;20059;-72
2022/11/08 11:10:23;;;;;;;1.48;1.15;;;17.00;69.30;;;;;;5028219;28;20406;-72
2022/11/08 11:12:50;;;;;;;1.92;1.20;;;17.00;69.30;;;;;;5021401;28;20061;-72
2022/11/08 11:15:17;;;;;;;3.17;1.20;;;17.00;69.40;;;;;;5030373;28;20072;-72
2022/11/08 11:17:44;;;;;;;3.08;1.17;;;17.00;69.30;;;;;;5030183;28;20066;-72
2022/11/08 11:20:21;;;;;;;2.17;1.10;;;17.00;69.30;;;;;;5029810;28;20049;-72
2022/11/08 11:22:48;;;;;;;1.42;1.00;;;17.00;69.30;;;;;;5027873;28;20084;-72
2022/11/08 11:25:16;;;;;;;1.40;1.02;;;17.00;69.30;;;;;;5024903;28;20140;-73
2022/11/08 11:27:44;;;;;;;1.55;1.10;;;17.00;69.30;;;;;;5030512;28;20172;-72
2022/11/08 11:30:30;;;;;;;1.20;1.10;;;17.00;69.30;;;;;;5016995;28;20064;-74
2022/11/08 11:33:02;;;;;;;2.03;1.20;;;17.00;69.20;;;;;;5014264;28;20054;-72
2022/11/08 11:35:37;;;;;;;2.13;1.15;;;16.90;69.30;;;;;;5014529;28;20069;-73
2022/11/08 11:38:04;;;;;;;2.15;1.10;;;16.90;69.50;;;;;;5031610;28;20067;-73
2022/11/08 11:40:36;;;;;;;1.88;1.13;;;16.90;69.30;;;;;;5017388;28;20064;-72
2022/11/08 11:43:07;;;;;;;1.40;1.13;;;16.90;69.30;;;;;;5020208;28;20062;-72
2022/11/08 11:45:37;;;;;;;1.33;1.00;;;16.90;69.20;;;;;;5047681;28;20132;-72
2022/11/08 11:48:08;;;;;;;1.98;1.15;;;16.90;69.20;;;;;;5051761;28;20140;-72
2022/11/08 11:50:36;;;;;;;1.83;1.10;;;16.90;69.30;;;;;;5032880;28;20061;-72
2022/11/08 11:53:05;;;;;;;2.90;1.20;;;16.90;69.30;;;;;;5032819;28;20137;-72
2022/11/08 11:55:40;;;;;;;1.33;1.00;;;16.90;69.30;;;;;;5022090;28;20460;-72
2022/11/08 11:58:15;;;;;;;2.20;1.15;;;16.90;69.30;;;;;;5016466;28;20144;-72
2022/11/08 12:00:42;;;;;;;;;;;16.90;69.30;;;;;;5031403;28;20107;-73
2022/11/08 12:03:20;;;;;;;2.00;1.20;;;16.90;69.30;;;;;;5033204;28;20431;-72
2022/11/08 12:06:11;;;;;;;1.35;1.15;;;16.90;69.40;;;;;;5029763;28;20137;-72
2022/11/08 12:08:46;;;;;;;1.58;1.10;;;16.90;69.90;;;;;;5022754;28;20059;-72
2022/11/08 12:11:17;;;;;;;;;;;16.90;69.40;;;;;;5032816;28;20057;-72
2022/11/08 12:13:53;;;;;;;1.70;1.10;;;16.90;69.40;;;;;;5029743;28;19927;-73
2022/11/08 12:16:23;;;;;;;2.35;1.20;;;16.90;69.50;;;;;;5013157;28;20061;-73
2022/11/08 12:18:56;;;;;;;1.65;1.10;;;16.90;69.40;;;;;;5029416;28;20072;-73
2022/11/08 12:21:27;;;;;;;1.27;1.10;;;16.90;69.40;;;;;;5030555;28;20136;-73
2022/11/08 12:24:10;;;;;;;1.50;1.05;;;16.90;69.40;;;;;;5030678;28;20053;-73
2022/11/08 12:26:40;;;;;;;1.77;1.13;;;17.00;69.40;;;;;;5039538;28;20132;-73
2022/11/08 12:29:16;;;;;;;1.88;1.30;;;16.90;69.40;;;;;;5031774;28;20379;-73
2022/11/08 12:31:46;;;;;;;1.50;1.20;;;16.90;69.40;;;;;;5031130;28;20055;-73
2022/11/08 12:34:18;;;;;;;2.03;1.13;;;16.90;69.40;;;;;;5032343;28;20064;-73
2022/11/08 12:36:49;;;;;;;2.42;1.25;;;16.90;69.40;;;;;;5044568;28;20053;-73
2022/11/08 12:39:21;;;;;;;1.58;1.25;;;16.90;69.30;;;;;;5012624;28;20049;-73
2022/11/08 12:41:50;;;;;;;1.67;1.20;;;16.90;69.30;;;;;;5028836;28;20468;-72
2022/11/08 12:44:38;;;;;;;2.30;1.10;;;16.90;69.40;;;;;;5042394;28;20064;-73
2022/11/08 12:47:11;;;;;;;2.65;1.30;;;16.90;69.30;;;;;;5025792;28;20060;-72
2022/11/08 12:49:41;;;;;;;3.10;1.25;;;16.90;69.40;;;;;;5032990;28;20060;-73
2022/11/08 12:52:16;;;;;;;2.95;1.20;;;16.90;69.40;;;;;;5033168;28;20055;-72
2022/11/08 12:54:45;;;;;;;1.50;1.35;;;16.90;69.40;;;;;;5024553;28;20134;-72
2022/11/08 12:57:12;;;;;;;2.88;1.10;;;16.90;69.40;;;;;;5013531;28;20076;-72
2022/11/08 12:59:43;;;;;;;1.77;1.17;;;16.80;69.40;;;;;;5028903;28;20078;-72
2022/11/08 13:02:15;;;;;;;2.45;1.20;;;16.90;69.40;;;;;;5028964;28;20072;-73
2022/11/08 13:04:45;;;;;;;1.67;1.10;;;16.90;69.40;;;;;;5052764;28;20053;-73
2022/11/08 13:07:21;;;;;;;1.88;1.33;;;16.90;69.40;;;;;;5033837;28;20053;-73
2022/11/08 13:09:50;;;;;;;4.53;1.20;;;16.80;69.40;;;;;;5032591;28;20512;-72
2022/11/08 13:12:28;;;;;;;2.03;1.27;;;16.90;69.40;;;;;;5032205;28;20067;-74
2022/11/08 13:14:58;;;;;;;1.65;1.20;;;16.90;69.40;;;;;;5023354;28;20152;-72